Mae Hong Son Airport

VTCI · Chiang Mai, Tajlandia

Historia METAR VTCI · Mae Hong Son Airport

Poniżej widzisz METAR-y z ostatnich kilku dni. Wybierz rok, aby przeglądać starsze METAR-y, począwszy od roku 2007.

16 lipca 2024

Czas Kod Pogoda Temp. Widoczność Sufit Wiatr METAR/SPECI
06:00
M
26 °C 7 km 2.500 ft Var Var 1 kt METAR VTCH 152300Z VRB01KT 7000 FEW018 BKN025 26/24 Q1007

15 lipca 2024

Czas Kod Pogoda Temp. Widoczność Sufit Wiatr METAR/SPECI
18:00
V
30 °C 10 km+ - 160° 160° 3 kt METAR VTCH 151100Z 16003KT 100V220 9999 FEW020CB SCT025 30/24 Q1004
17:00
V
30 °C 10 km+ - 180° 180° 5 kt METAR VTCH 151000Z 18005KT 130V270 9999 FEW020CB SCT025 30/23 Q1004
16:00
V
32 °C 10 km+ - 240° 240° 6 kt METAR VTCH 150900Z 24006KT 180V300 9999 -RA FEW020CB SCT025 32/24 Q1004
15:00
V
33 °C 10 km+ - Var Var 7 kt METAR VTCH 150800Z VRB07KT 9999 VCSH FEW020TCU SCT025 33/24 Q1005
14:00
M
33 °C 10 km+ 2.500 ft 210° 210° 5 kt METAR VTCH 150700Z 21005KT 140V290 9999 VCSH FEW020TCU BKN025 33/24 Q1006
13:00
M
32 °C 10 km+ 2.500 ft 230° 230° 4 kt METAR VTCH 150600Z 23004KT 160V320 9999 VCSH FEW020TCU BKN025 32/23 Q1007
12:00
M
31 °C 10 km+ 2.500 ft Var Var 4 kt METAR VTCH 150500Z VRB04KT 9999 BKN025 31/24 Q1007
11:00
M
30 °C 10 km+ 2.500 ft 270° 270° 4 kt METAR VTCH 150400Z 27004KT 190V330 9999 BKN025 30/24 Q1008
10:00
M
29 °C 9 km 2.500 ft Var Var 3 kt METAR VTCH 150300Z VRB03KT 9000 FEW018 BKN025 29/24 Q1008
09:00
M
27 °C 8 km 2.500 ft Var Var 2 kt METAR VTCH 150200Z VRB02KT 8000 FEW015 BKN025 27/23 Q1008
08:00
M
27 °C 8 km 2.500 ft 360° 360° 0 kt METAR VTCH 150100Z 00000KT 8000 FEW015 BKN025 27/24 Q1008
07:00
M
26 °C 7 km 2.500 ft 360° 360° 0 kt METAR VTCH 150000Z 00000KT 7000 FEW015 BKN025 26/24 Q1007
06:00
M
25 °C 6 km 2.500 ft 360° 360° 0 kt METAR VTCH 142300Z 00000KT 6000 FEW015 BKN025 25/24 Q1007
05:00
M
26 °C 6 km 2.500 ft 360° 360° 0 kt METAR VTCH 142200Z 00000KT 6000 FEW018 BKN025 26/24 Q1007

14 lipca 2024

Czas Kod Pogoda Temp. Widoczność Sufit Wiatr METAR/SPECI
18:00
V
29 °C 10 km+ - 240° 240° 5 kt METAR VTCH 141100Z 24005KT 200V300 9999 VCSH FEW020CB SCT025 29/23 Q1003 TEMPO -TSRA
17:00
V
32 °C 9 km - 190° 190° 7 kt METAR VTCH 141000Z 19007KT 140V280 9000 -SHRA FEW020CB SCT025 32/24 Q1002 TEMPO -TSRA
16:00
V
33 °C 10 km+ - Var Var 4 kt METAR VTCH 140900Z VRB04KT 9999 FEW020CB 33/24 Q1002 TEMPO FM1030 -TSRA
15:00
V
33 °C 10 km+ - Var Var 4 kt METAR VTCH 140800Z VRB04KT 9999 FEW018 FEW020CB SCT025 33/24 Q1003 NOSIG
14:00
V
33 °C 10 km+ - Var Var 5 kt METAR VTCH 140700Z VRB05KT 9999 VCSH FEW020TCU SCT025 33/24 Q1003 NOSIG
13:00
M
31 °C 10 km+ 2.500 ft Var Var 5 kt METAR VTCH 140600Z VRB05KT 9999 -SHRA FEW018 FEW020TCU BKN025 31/23 Q1004 NOSIG
12:00
M
32 °C 10 km+ 2.500 ft Var Var 3 kt METAR VTCH 140500Z VRB03KT 9999 VCSH FEW020TCU BKN025 32/24 Q1004 NOSIG
11:00
M
31 °C 10 km+ 2.500 ft 150° 150° 4 kt METAR VTCH 140400Z 15004KT 060V210 9999 FEW018 FEW020TCU BKN025 31/24 Q1005 NOSIG
10:00
M
30 °C 10 km+ 2.500 ft Var Var 5 kt METAR VTCH 140300Z VRB05KT 9999 FEW018 BKN025 30/24 Q1006 NOSIG
09:00
M
28 °C 9 km 2.500 ft 210° 210° 4 kt METAR VTCH 140200Z 21004KT 130V280 9000 FEW018 BKN025 28/24 Q1006 NOSIG
08:00
M
27 °C 8 km 2.500 ft Var Var 2 kt METAR VTCH 140100Z VRB02KT 8000 FEW015 BKN025 27/24 Q1005 NOSIG
07:00
M
26 °C 8 km 2.500 ft 360° 360° 0 kt METAR VTCH 140000Z 00000KT 8000 FEW018 BKN025 26/24 Q1005 NOSIG
06:00
M
26 °C 7 km 2.500 ft 360° 360° 0 kt METAR VTCH 132300Z 00000KT 7000 -DZ FEW015 BKN025 26/24 Q1004 NOSIG
05:00
M
26 °C 5 km 2.500 ft 360° 360° 0 kt METAR VTCH 132200Z 00000KT 5000 BR FEW015 BKN025 26/24 Q1004 NOSIG

13 lipca 2024

Czas Kod Pogoda Temp. Widoczność Sufit Wiatr METAR/SPECI
18:00
V
32 °C 10 km+ - 190° 190° 6 kt METAR VTCH 131100Z 19006KT 140V280 9999 VCSH FEW020CB 32/24 Q1001 NOSIG
17:00
V
34 °C 10 km+ - Var Var 3 kt METAR VTCH 131000Z VRB03KT 9999 VCSH FEW018 FEW020CB 34/24 Q1000 NOSIG
16:00
V
33 °C 10 km+ - 170° 170° 4 kt METAR VTCH 130900Z 17004KT 100V270 9999 FEW018 FEW020TCU 33/24 Q1001 NOSIG
15:00
V
33 °C 10 km+ - Var Var 3 kt METAR VTCH 130800Z VRB03KT 9999 FEW018 FEW020TCU SCT025 33/24 Q1002 NOSIG
14:00
M
32 °C 10 km+ 2.500 ft Var Var 3 kt METAR VTCH 130700Z VRB03KT 9999 FEW018 FEW020TCU BKN025 32/23 Q1003 NOSIG
13:00
M
31 °C 10 km+ 2.500 ft Var Var 2 kt METAR VTCH 130600Z VRB02KT 9999 -RA FEW018 FEW020TCU BKN025 31/24 Q1004 NOSIG
Zgłoś zmianę